createdAt,value
2023-05-15T00:00:19.251Z,100830.42
2023-05-15T00:01:20.936Z,100828.27
2023-05-15T00:02:20.701Z,100826.48
2023-05-15T00:02:32.361Z,100835.67
2023-05-15T00:03:32.888Z,100799.91
2023-05-15T00:04:33.364Z,100799.56
2023-05-15T00:05:33.946Z,100799.23
2023-05-15T00:06:34.736Z,100798.72
2023-05-15T00:07:35.165Z,100798.12
2023-05-15T00:08:35.605Z,100797.23
2023-05-15T00:09:36.164Z,100796.23
2023-05-15T00:10:36.818Z,100795.42
2023-05-15T00:11:37.203Z,100795.05
2023-05-15T00:12:38.086Z,100794.17
2023-05-15T00:13:38.826Z,100793.24
2023-05-15T00:14:39.487Z,100791.98
2023-05-15T00:15:40.356Z,100790.68
2023-05-15T00:16:41.358Z,100788.99
2023-05-15T00:17:41.824Z,100787.78
2023-05-15T00:18:42.486Z,100785.92
2023-05-15T00:19:43.515Z,100784.61
2023-05-15T00:20:43.451Z,100783.30
2023-05-15T00:21:44.286Z,100781.74
2023-05-15T00:22:44.347Z,100780.09
2023-05-15T00:23:45.135Z,100778.20
2023-05-15T00:24:45.793Z,100775.88
2023-05-15T00:25:46.515Z,100774.32
2023-05-15T00:26:47.438Z,100772.51
2023-05-15T00:27:47.484Z,100769.55
2023-05-15T00:28:48.428Z,100767.74
2023-05-15T00:29:49.012Z,100765.72
2023-05-15T00:30:49.524Z,100762.80
2023-05-15T00:31:50.166Z,100760.15
2023-05-15T00:32:50.949Z,100757.16
2023-05-15T00:33:51.369Z,100755.17
2023-05-15T00:34:00.060Z,100755.09
2023-05-15T00:35:00.610Z,100712.86
2023-05-15T00:36:01.097Z,100712.41
2023-05-15T00:37:01.616Z,100711.56
2023-05-15T00:38:02.082Z,100711.44
2023-05-15T00:39:02.381Z,100711.06
2023-05-15T00:40:02.925Z,100710.60
2023-05-15T00:41:03.343Z,100710.14
2023-05-15T00:42:04.166Z,100709.69
2023-05-15T00:43:04.686Z,100709.13
2023-05-15T00:44:05.178Z,100708.67
2023-05-15T00:45:06.262Z,100708.42
2023-05-15T00:46:05.736Z,100707.48
2023-05-15T00:47:06.361Z,100706.17
2023-05-15T00:48:06.840Z,100705.25
2023-05-15T00:49:07.049Z,100703.59
2023-05-15T00:50:07.974Z,100702.69
2023-05-15T00:51:11.408Z,100701.13
2023-05-15T00:52:09.616Z,100699.64
2023-05-15T00:53:10.167Z,100697.78
2023-05-15T00:54:11.035Z,100696.14
2023-05-15T00:55:11.736Z,100694.70
2023-05-15T00:56:12.449Z,100692.94
2023-05-15T00:57:14.005Z,100691.45
2023-05-15T00:58:13.800Z,100689.55
2023-05-15T00:59:14.278Z,100688.04
2023-05-15T01:00:15.078Z,100686.64
2023-05-15T01:01:15.126Z,100684.95
2023-05-15T01:02:15.885Z,100683.64
2023-05-15T01:03:16.553Z,100681.66
2023-05-15T01:04:18.157Z,100679.90
2023-05-15T01:05:17.918Z,100677.83
2023-05-15T01:05:27.268Z,100697.22
2023-05-15T01:06:27.706Z,100653.41
2023-05-15T01:07:28.603Z,100653.23
2023-05-15T01:08:29.534Z,100652.48
2023-05-15T01:09:30.210Z,100651.94
2023-05-15T01:10:30.916Z,100651.02
2023-05-15T01:11:30.891Z,100650.25
2023-05-15T01:12:31.617Z,100649.17
2023-05-15T01:13:32.260Z,100648.36
2023-05-15T01:14:32.635Z,100647.35
2023-05-15T01:15:33.583Z,100646.72
2023-05-15T01:16:34.201Z,100645.16
2023-05-15T01:17:34.509Z,100644.10
2023-05-15T01:18:35.297Z,100643.09
2023-05-15T01:19:36.006Z,100641.88
2023-05-15T01:20:36.798Z,100640.70
2023-05-15T01:21:37.569Z,100639.90
2023-05-15T01:22:38.125Z,100638.63
2023-05-15T01:23:38.200Z,100637.92
2023-05-15T01:24:38.882Z,100636.83
2023-05-15T01:25:39.409Z,100635.56
2023-05-15T01:26:39.609Z,100633.84
2023-05-15T01:27:40.153Z,100632.33
2023-05-15T01:28:40.683Z,100631.20
2023-05-15T01:29:41.184Z,100630.02
2023-05-15T01:30:41.711Z,100629.05
2023-05-15T01:31:42.243Z,100627.58
2023-05-15T01:32:42.963Z,100626.19
2023-05-15T01:33:43.525Z,100624.54
2023-05-15T01:34:44.050Z,100623.27
2023-05-15T01:35:44.618Z,100622.18
2023-05-15T01:36:45.524Z,100620.95
2023-05-15T01:36:54.583Z,100661.17
2023-05-15T01:37:55.506Z,100608.45
2023-05-15T01:38:55.539Z,100607.69
2023-05-15T01:39:56.354Z,100607.61
2023-05-15T01:40:57.299Z,100607.89
2023-05-15T01:41:57.869Z,100607.64
2023-05-15T01:42:58.405Z,100607.61
2023-05-15T01:43:59.146Z,100606.55
2023-05-15T01:44:59.753Z,100605.97
2023-05-15T01:46:00.615Z,100604.95
2023-05-15T01:47:01.197Z,100604.06
2023-05-15T01:48:01.865Z,100603.05
2023-05-15T01:49:02.621Z,100602.55
2023-05-15T01:50:02.625Z,100601.70
2023-05-15T01:51:03.378Z,100601.03
2023-05-15T01:52:04.123Z,100600.95
2023-05-15T01:53:04.712Z,100600.53
2023-05-15T01:54:05.459Z,100600.48
2023-05-15T01:55:05.508Z,100600.61
2023-05-15T01:56:06.029Z,100600.91
2023-05-15T01:57:06.887Z,100600.50
2023-05-15T01:58:07.473Z,100600.03
2023-05-15T01:59:07.722Z,100598.89
2023-05-15T02:00:08.250Z,100598.13
2023-05-15T02:01:08.896Z,100597.41
2023-05-15T02:02:09.508Z,100596.66
2023-05-15T02:03:10.206Z,100595.31
2023-05-15T02:04:10.686Z,100594.25
2023-05-15T02:05:11.582Z,100593.07
2023-05-15T02:06:12.048Z,100591.73
2023-05-15T02:07:12.615Z,100590.13
2023-05-15T02:08:13.142Z,100589.20
2023-05-15T02:09:13.667Z,100587.67
2023-05-15T02:10:14.153Z,100586.91
2023-05-15T02:10:24.829Z,100626.12
2023-05-15T02:11:24.936Z,100566.69
2023-05-15T02:12:25.580Z,100566.52
2023-05-15T02:13:26.149Z,100566.64
2023-05-15T02:14:26.648Z,100566.56
2023-05-15T02:15:27.442Z,100566.22
2023-05-15T02:16:28.118Z,100565.88
2023-05-15T02:17:28.158Z,100565.80
2023-05-15T02:18:29.030Z,100566.38
2023-05-15T02:19:29.012Z,100566.05
2023-05-15T02:20:30.065Z,100565.87
2023-05-15T02:21:29.743Z,100566.22
2023-05-15T02:22:30.436Z,100566.30
2023-05-15T02:23:31.354Z,100566.47
2023-05-15T02:24:31.983Z,100565.72
2023-05-15T02:25:33.671Z,100565.50
2023-05-15T02:26:33.431Z,100564.99
2023-05-15T02:27:34.035Z,100564.91
2023-05-15T02:28:35.814Z,100564.41
2023-05-15T02:29:35.320Z,100563.61
2023-05-15T02:30:35.911Z,100562.52
2023-05-15T02:31:36.508Z,100561.92
2023-05-15T02:32:37.021Z,100560.87
2023-05-15T02:33:37.068Z,100559.60
2023-05-15T02:34:37.909Z,100558.25
2023-05-15T02:35:38.579Z,100557.16
2023-05-15T02:36:39.129Z,100555.63
2023-05-15T02:37:39.649Z,100554.41
2023-05-15T02:38:40.020Z,100552.72
2023-05-15T02:39:40.546Z,100551.08
2023-05-15T02:40:41.061Z,100549.88
2023-05-15T02:40:50.823Z,100574.96
2023-05-15T02:41:50.812Z,100527.38
2023-05-15T02:42:52.456Z,100526.62
2023-05-15T02:43:52.001Z,100525.66
2023-05-15T02:44:52.479Z,100525.31
2023-05-15T02:45:53.064Z,100524.42
2023-05-15T02:46:53.648Z,100522.81
2023-05-15T02:47:54.324Z,100522.13
2023-05-15T02:48:54.325Z,100520.66
2023-05-15T02:49:55.115Z,100519.69
2023-05-15T02:50:55.949Z,100519.09
2023-05-15T02:51:56.750Z,100517.99
2023-05-15T02:52:57.410Z,100517.05
2023-05-15T02:53:58.112Z,100515.80
2023-05-15T02:54:58.882Z,100515.03
2023-05-15T02:55:59.624Z,100513.52
2023-05-15T02:56:59.670Z,100512.09
2023-05-15T02:58:00.347Z,100510.39
2023-05-15T02:59:01.259Z,100509.16
2023-05-15T03:00:01.363Z,100507.77
2023-05-15T03:01:01.492Z,100506.34
2023-05-15T03:02:02.031Z,100504.74
2023-05-15T03:03:02.198Z,100503.27
2023-05-15T03:04:02.340Z,100502.02
2023-05-15T03:05:02.543Z,100501.38
2023-05-15T03:06:03.191Z,100500.38
2023-05-15T03:07:03.797Z,100499.58
2023-05-15T03:08:04.396Z,100499.25
2023-05-15T03:09:04.931Z,100498.78
2023-05-15T03:10:05.602Z,100498.33
2023-05-15T03:11:06.351Z,100498.00
2023-05-15T03:12:07.068Z,100497.53
2023-05-15T03:12:16.220Z,100550.48
2023-05-15T03:13:16.544Z,100496.72
2023-05-15T03:14:17.359Z,100495.89
2023-05-15T03:15:18.091Z,100495.92
2023-05-15T03:16:19.104Z,100495.69
2023-05-15T03:17:19.470Z,100496.31
2023-05-15T03:18:19.879Z,100496.66
2023-05-15T03:19:20.242Z,100497.51
2023-05-15T03:20:20.466Z,100497.47
2023-05-15T03:24:17.222Z,100497.09
2023-05-15T03:25:17.985Z,100495.41
2023-05-15T03:26:18.095Z,100494.44
2023-05-15T03:27:18.867Z,100492.59
2023-05-15T03:28:19.592Z,100491.27
2023-05-15T03:29:20.242Z,100490.10
2023-05-15T03:30:20.974Z,100488.36
2023-05-15T03:31:21.839Z,100486.26
2023-05-15T03:32:22.472Z,100483.98
2023-05-15T03:33:22.937Z,100481.79
2023-05-15T03:34:23.664Z,100479.51
2023-05-15T03:35:24.102Z,100476.89
2023-05-15T03:36:24.022Z,100474.73
2023-05-15T03:37:24.769Z,100472.16
2023-05-15T03:38:25.271Z,100469.67
2023-05-15T03:39:25.456Z,100467.47
2023-05-15T03:40:26.038Z,100464.97
2023-05-15T03:41:26.310Z,100462.44
2023-05-15T03:42:27.785Z,100460.28
2023-05-15T03:43:27.453Z,100457.54
2023-05-15T03:44:27.976Z,100455.51
2023-05-15T03:45:28.775Z,100452.80
2023-05-15T05:37:27.725Z,100457.36
2023-05-15T05:38:27.678Z,100401.62
2023-05-15T05:39:28.053Z,100401.05
2023-05-15T05:40:28.845Z,100401.17
2023-05-15T05:41:29.365Z,100401.23
2023-05-15T05:42:29.915Z,100401.53
2023-05-15T05:43:30.571Z,100402.38
2023-05-15T05:44:31.150Z,100402.63
2023-05-15T05:45:31.642Z,100402.63
2023-05-15T05:50:15.508Z,100403.56
2023-05-15T05:51:16.237Z,100404.57
2023-05-15T05:52:17.064Z,100405.50
2023-05-15T05:53:17.651Z,100406.25
2023-05-15T05:54:18.517Z,100407.13
2023-05-15T05:55:19.171Z,100407.51
2023-05-15T05:56:19.937Z,100407.97
2023-05-15T05:57:20.243Z,100408.20
2023-05-15T05:58:25.475Z,100408.36
2023-05-15T05:59:21.314Z,100408.80
2023-05-15T06:00:21.826Z,100409.05
2023-05-15T06:01:22.456Z,100409.28
2023-05-15T06:02:23.444Z,100410.02
2023-05-15T06:03:23.130Z,100411.17
2023-05-15T06:04:23.653Z,100412.05
2023-05-15T06:05:24.442Z,100413.45
2023-05-15T06:06:24.867Z,100415.09
2023-05-15T06:07:25.259Z,100416.41
2023-05-15T06:08:25.819Z,100418.17
2023-05-15T06:08:34.486Z,100508.98
2023-05-15T06:09:34.943Z,100445.89
2023-05-15T06:10:35.556Z,100445.34
2023-05-15T06:11:36.095Z,100445.46
2023-05-15T06:12:36.976Z,100446.25
2023-05-15T06:13:37.484Z,100447.16
2023-05-15T06:14:37.997Z,100448.09
2023-05-15T06:15:38.537Z,100448.89
2023-05-15T06:16:39.206Z,100450.44
2023-05-15T06:17:39.739Z,100452.19
2023-05-15T06:18:40.246Z,100454.45
2023-05-15T06:19:40.768Z,100456.89
2023-05-15T06:20:41.341Z,100459.38
2023-05-15T06:21:41.958Z,100462.36
2023-05-15T06:22:42.515Z,100465.19
2023-05-15T06:23:43.131Z,100468.01
2023-05-15T06:24:43.828Z,100470.50
2023-05-15T06:25:44.440Z,100473.45
2023-05-15T06:26:45.037Z,100475.95
2023-05-15T06:27:45.619Z,100478.77
2023-05-15T06:28:46.194Z,100481.72
2023-05-15T06:29:46.671Z,100484.31
2023-05-15T06:30:47.223Z,100486.84
2023-05-15T06:31:47.753Z,100489.31
2023-05-15T06:32:48.618Z,100491.78
2023-05-15T06:33:49.270Z,100494.59
2023-05-15T06:34:49.783Z,100497.61
2023-05-15T06:35:50.539Z,100500.63
2023-05-15T06:36:51.094Z,100504.00
2023-05-15T06:37:52.574Z,100506.91
2023-05-15T06:38:52.398Z,100509.98
2023-05-15T06:39:00.997Z,100617.27
2023-05-15T06:40:01.524Z,100558.75
2023-05-15T06:41:02.164Z,100559.17
2023-05-15T06:42:02.771Z,100559.08
2023-05-15T06:43:03.659Z,100559.21
2023-05-15T06:44:04.207Z,100559.16
2023-05-15T06:45:04.774Z,100559.18
2023-05-15T06:46:05.366Z,100559.17
2023-05-15T06:47:06.188Z,100559.40
2023-05-15T06:48:06.553Z,100559.58
2023-05-15T06:49:07.024Z,100560.02
2023-05-15T06:50:07.573Z,100560.52
2023-05-15T06:51:08.067Z,100561.28
2023-05-15T06:52:08.626Z,100562.25
2023-05-15T06:53:09.122Z,100563.34
2023-05-15T06:54:09.634Z,100564.40
2023-05-15T06:55:10.268Z,100566.37
2023-05-15T06:56:10.826Z,100568.02
2023-05-15T06:57:11.423Z,100569.70
2023-05-15T06:58:11.624Z,100571.63
2023-05-15T06:59:12.193Z,100573.64
2023-05-15T07:00:12.729Z,100576.11
2023-05-15T07:01:13.384Z,100578.25
2023-05-15T07:02:14.053Z,100581.20
2023-05-15T07:03:14.523Z,100583.47
2023-05-15T07:04:57.859Z,100586.45
2023-05-15T07:05:58.416Z,100589.55
2023-05-15T07:06:58.994Z,100593.48
2023-05-15T07:08:00.068Z,100596.73
2023-05-15T07:08:59.574Z,100600.23
2023-05-15T07:10:00.563Z,100604.05
2023-05-15T07:10:09.234Z,100715.25
2023-05-15T07:11:09.825Z,100658.19
2023-05-15T07:12:10.322Z,100657.66
2023-05-15T07:13:10.695Z,100657.99
2023-05-15T07:14:11.273Z,100658.25
2023-05-15T07:15:11.856Z,100659.05
2023-05-15T07:16:12.376Z,100660.64
2023-05-15T07:17:12.651Z,100662.25
2023-05-15T07:18:13.419Z,100664.45
2023-05-15T07:19:14.001Z,100666.19
2023-05-15T07:20:14.533Z,100668.59
2023-05-15T07:21:15.293Z,100671.34
2023-05-15T07:22:15.891Z,100673.63
2023-05-15T07:23:16.480Z,100675.58
2023-05-15T07:24:17.054Z,100677.89
2023-05-15T07:25:17.710Z,100679.77
2023-05-15T07:26:28.733Z,100681.67
2023-05-15T07:27:18.926Z,100684.52
2023-05-15T07:28:19.510Z,100686.73
2023-05-15T07:29:20.186Z,100688.95
2023-05-15T07:30:20.832Z,100691.73
2023-05-15T07:31:21.393Z,100693.34
2023-05-15T07:32:21.650Z,100695.27
2023-05-15T07:33:22.546Z,100696.96
2023-05-15T07:34:23.143Z,100698.31
2023-05-15T07:35:23.923Z,100699.92
2023-05-15T07:36:24.325Z,100701.87
2023-05-15T07:37:25.268Z,100703.49
2023-05-15T07:38:25.951Z,100705.28
2023-05-15T07:39:26.588Z,100706.86
2023-05-15T07:40:27.008Z,100708.77
2023-05-15T07:41:27.172Z,100710.98
2023-05-15T07:41:35.893Z,100796.25
2023-05-15T07:42:36.394Z,100749.25
2023-05-15T07:43:37.012Z,100749.13
2023-05-15T07:44:37.748Z,100749.67
2023-05-15T07:45:38.342Z,100749.56
2023-05-15T07:46:39.317Z,100750.19
2023-05-15T07:47:39.818Z,100750.44
2023-05-15T07:48:40.531Z,100750.97
2023-05-15T07:49:41.036Z,100752.09
2023-05-15T07:50:41.916Z,100752.80
2023-05-15T07:51:42.882Z,100754.05
2023-05-15T07:52:43.786Z,100755.34
2023-05-15T07:53:44.468Z,100756.82
2023-05-15T07:54:45.459Z,100759.14
2023-05-15T07:55:46.622Z,100761.04
2023-05-15T07:56:46.118Z,100763.84
2023-05-15T07:57:53.386Z,100766.30
2023-05-15T07:58:47.379Z,100769.13
2023-05-15T07:59:47.859Z,100771.31
2023-05-15T08:00:47.856Z,100773.72
2023-05-15T08:01:48.661Z,100776.72
2023-05-15T08:02:49.444Z,100780.31
2023-05-15T08:03:50.093Z,100783.81
2023-05-15T08:04:50.623Z,100787.06
2023-05-15T08:05:50.901Z,100790.69
2023-05-15T08:06:51.608Z,100794.36
2023-05-15T08:07:52.157Z,100797.90
2023-05-15T08:08:52.422Z,100801.78
2023-05-15T08:09:52.490Z,100805.63
2023-05-15T08:10:52.840Z,100808.75
2023-05-15T08:11:53.694Z,100812.50
2023-05-15T08:12:54.162Z,100817.27
2023-05-15T08:13:54.741Z,100821.27
2023-05-15T08:14:21.344Z,100921.19
2023-05-15T08:15:15.030Z,100878.73
2023-05-15T08:16:13.221Z,100878.83
2023-05-15T08:17:13.478Z,100879.97
2023-05-15T08:18:14.237Z,100881.61
2023-05-15T08:19:14.984Z,100882.98
2023-05-15T08:20:15.655Z,100885.17
2023-05-15T08:21:16.411Z,100887.11
2023-05-15T08:22:17.368Z,100889.20
2023-05-15T08:23:17.398Z,100891.95
2023-05-15T08:24:18.191Z,100894.47
2023-05-15T08:25:18.513Z,100896.98
2023-05-15T08:26:19.070Z,100899.48
2023-05-15T08:27:24.445Z,100902.38
2023-05-15T08:28:20.505Z,100905.02
2023-05-15T08:29:23.717Z,100906.95
2023-05-15T08:30:22.266Z,100909.20
2023-05-15T08:32:06.807Z,100911.87
2023-05-15T08:33:07.759Z,100915.80
2023-05-15T08:34:08.182Z,100919.50
2023-05-15T08:35:08.612Z,100923.98
2023-05-15T08:36:09.538Z,100928.61
2023-05-15T08:37:12.637Z,100932.89
2023-05-15T08:38:10.210Z,100936.38
2023-05-15T08:39:12.086Z,100939.94
2023-05-15T08:40:11.693Z,100943.42
2023-05-15T08:41:14.270Z,100946.06
2023-05-15T08:42:12.016Z,100948.85
2023-05-15T08:43:12.036Z,100951.63
2023-05-15T08:44:12.065Z,100953.14
2023-05-15T08:45:12.716Z,100955.22
2023-05-15T08:46:13.559Z,100957.61
2023-05-15T08:47:14.125Z,100959.77
2023-05-15T08:47:23.780Z,101031.60
2023-05-15T08:48:24.573Z,100997.27
2023-05-15T08:49:25.033Z,100997.27
2023-05-15T08:50:25.694Z,100997.77
2023-05-15T08:51:26.614Z,100998.50
2023-05-15T08:52:28.299Z,100998.61
2023-05-15T08:53:28.289Z,100999.95
2023-05-15T08:54:28.552Z,101000.30
2023-05-15T08:55:29.527Z,101000.91
2023-05-15T08:56:30.130Z,101001.62
2023-05-15T08:57:30.280Z,101002.61
2023-05-15T08:58:31.080Z,101003.71
2023-05-15T08:59:31.815Z,101005.52
2023-05-15T09:00:32.281Z,101007.59
2023-05-15T09:01:32.980Z,101009.89
2023-05-15T09:02:33.457Z,101012.42
2023-05-15T09:03:34.149Z,101015.03
2023-05-15T09:04:34.590Z,101017.27
2023-05-15T09:05:35.678Z,101019.80
2023-05-15T09:06:35.908Z,101022.19
2023-05-15T09:07:36.691Z,101024.67
2023-05-15T09:08:37.414Z,101027.50
2023-05-15T09:09:38.140Z,101030.59
2023-05-15T09:10:38.799Z,101033.73
2023-05-15T09:11:39.450Z,101036.83
2023-05-15T09:12:39.540Z,101039.63
2023-05-15T09:13:40.290Z,101043.28
2023-05-15T09:14:40.839Z,101046.39
2023-05-15T09:15:41.444Z,101049.16
2023-05-15T09:16:42.194Z,101051.61
2023-05-15T09:17:43.170Z,101054.54
2023-05-15T09:18:43.772Z,101056.55
2023-05-15T09:19:44.593Z,101059.31
2023-05-15T09:19:53.257Z,101121.34
2023-05-15T09:20:56.061Z,101092.39
2023-05-15T09:21:54.575Z,101092.66
2023-05-15T09:22:55.467Z,101093.08
2023-05-15T09:23:56.381Z,101093.52
2023-05-15T09:24:57.351Z,101093.60
2023-05-15T09:25:57.997Z,101093.34
2023-05-15T09:26:58.044Z,101093.55
2023-05-15T09:27:58.607Z,101093.22
2023-05-15T09:28:59.164Z,101093.69
2023-05-15T09:29:59.820Z,101094.70
2023-05-15T09:33:31.642Z,101095.05
2023-05-15T09:34:31.730Z,101096.20
2023-05-15T09:35:32.383Z,101096.28
2023-05-15T09:36:44.918Z,101096.41
2023-05-15T09:37:45.553Z,101096.95
2023-05-15T09:38:46.166Z,101098.32
2023-05-15T09:39:46.881Z,101100.03
2023-05-15T09:40:47.457Z,101102.41
2023-05-15T09:41:48.208Z,101104.84
2023-05-15T09:42:48.236Z,101108.29
2023-05-15T09:43:48.845Z,101111.84
2023-05-15T09:44:49.445Z,101115.52
2023-05-15T09:45:50.152Z,101118.97
2023-05-15T09:46:50.752Z,101121.77
2023-05-15T09:47:51.545Z,101124.06
2023-05-15T09:48:51.573Z,101125.68
2023-05-15T09:49:01.221Z,101164.50
2023-05-15T09:50:02.163Z,101150.30
2023-05-15T09:51:02.756Z,101149.52
2023-05-15T09:52:03.706Z,101149.08
2023-05-15T09:53:03.764Z,101149.09
2023-05-15T09:54:04.302Z,101149.17
2023-05-15T09:55:05.007Z,101149.05
2023-05-15T09:56:05.328Z,101149.09
2023-05-15T09:57:05.967Z,101148.98
2023-05-15T09:58:06.661Z,101147.95
2023-05-15T09:59:07.241Z,101147.94
2023-05-15T10:00:07.337Z,101147.88
2023-05-15T10:01:08.247Z,101148.11
2023-05-15T10:02:08.690Z,101148.14
2023-05-15T10:03:09.486Z,101149.17
2023-05-15T10:04:10.132Z,101150.61
2023-05-15T10:05:10.917Z,101152.70
2023-05-15T10:06:11.835Z,101154.48
2023-05-15T10:07:12.503Z,101155.59
2023-05-15T10:08:13.245Z,101156.55
2023-05-15T10:09:13.831Z,101158.04
2023-05-15T10:10:14.556Z,101158.85
2023-05-15T10:11:15.227Z,101160.41
2023-05-15T10:12:15.784Z,101162.63
2023-05-15T10:13:16.482Z,101164.39
2023-05-15T10:14:16.613Z,101165.78
2023-05-15T10:15:16.840Z,101167.77
2023-05-15T10:16:17.500Z,101169.26
2023-05-15T10:17:18.125Z,101170.88
2023-05-15T10:18:18.687Z,101172.06
2023-05-15T10:19:57.797Z,101223.43
2023-05-15T10:20:51.188Z,101205.90
2023-05-15T10:21:51.980Z,101205.61
2023-05-15T10:22:52.642Z,101206.08
2023-05-15T10:23:53.267Z,101206.66
2023-05-15T10:24:53.545Z,101207.16
2023-05-15T10:25:54.397Z,101207.30
2023-05-15T10:26:55.137Z,101207.73
2023-05-15T10:27:56.063Z,101208.08
2023-05-15T10:28:56.853Z,101208.57
2023-05-15T10:29:57.463Z,101209.53
2023-05-15T10:30:58.222Z,101210.21
2023-05-15T10:31:58.563Z,101210.92
2023-05-15T10:32:58.615Z,101212.22
2023-05-15T10:33:59.459Z,101213.56
2023-05-15T10:34:59.541Z,101214.14
2023-05-15T10:36:00.464Z,101213.75
2023-05-15T10:37:01.393Z,101213.52
2023-05-15T10:38:02.287Z,101213.69
2023-05-15T10:39:03.254Z,101213.63
2023-05-15T10:40:04.019Z,101214.52
2023-05-15T10:41:16.650Z,101214.77
2023-05-15T10:42:05.284Z,101215.00
2023-05-15T10:43:05.692Z,101215.59
2023-05-15T10:44:06.491Z,101216.53
2023-05-15T10:45:07.158Z,101217.56
2023-05-15T10:46:07.255Z,101218.19
2023-05-15T10:47:07.972Z,101218.53
2023-05-15T10:48:08.664Z,101217.95
2023-05-15T10:49:09.038Z,101218.05
2023-05-15T10:50:09.620Z,101217.91
2023-05-15T10:51:11.179Z,101217.44
2023-05-15T10:52:10.574Z,101216.36
2023-05-15T10:52:21.333Z,101219.19
2023-05-15T10:53:21.050Z,101204.94
2023-05-15T10:54:21.333Z,101205.09
2023-05-15T10:55:21.985Z,101205.53
2023-05-15T10:56:22.082Z,101206.05
2023-05-15T10:57:22.524Z,101206.45
2023-05-15T10:58:22.518Z,101206.83
2023-05-15T10:59:22.952Z,101206.48
2023-05-15T11:00:24.177Z,101206.13
2023-05-15T11:01:23.814Z,101206.31
2023-05-15T11:02:25.043Z,101205.95
2023-05-15T11:03:26.056Z,101205.16
2023-05-15T11:04:25.434Z,101205.45
2023-05-15T11:05:26.082Z,101205.65
2023-05-15T11:06:26.053Z,101206.56
2023-05-15T11:07:26.763Z,101206.83
2023-05-15T11:08:27.489Z,101207.13
2023-05-15T11:09:28.189Z,101207.27
2023-05-15T11:10:28.526Z,101207.49
2023-05-15T11:11:29.353Z,101206.92
2023-05-15T11:12:30.063Z,101207.22
2023-05-15T11:13:31.007Z,101206.61
2023-05-15T11:14:31.747Z,101205.44
2023-05-15T11:15:32.670Z,101204.56
2023-05-15T11:16:32.837Z,101203.82
2023-05-15T11:17:33.547Z,101203.70
2023-05-15T11:18:34.288Z,101204.22
2023-05-15T11:19:34.987Z,101204.45
2023-05-15T11:20:37.080Z,101205.00
2023-05-15T11:21:36.228Z,101204.88
2023-05-15T11:22:36.873Z,101204.36
2023-05-15T11:23:37.529Z,101204.38
2023-05-15T11:24:38.206Z,101203.83
2023-05-15T11:25:38.820Z,101203.23
2023-05-15T11:25:47.504Z,101193.49
2023-05-15T11:26:48.343Z,101186.94
2023-05-15T11:27:48.968Z,101186.91
2023-05-15T11:28:49.636Z,101186.98
2023-05-15T11:29:50.400Z,101186.89
2023-05-15T11:30:50.515Z,101187.20
2023-05-15T11:31:51.227Z,101186.94
2023-05-15T11:32:51.578Z,101186.91
2023-05-15T11:33:52.504Z,101186.72
2023-05-15T11:34:52.211Z,101185.62
2023-05-15T11:35:52.790Z,101185.13
2023-05-15T11:36:53.487Z,101184.46
2023-05-15T11:37:54.060Z,101183.63
2023-05-15T11:38:54.691Z,101183.31
2023-05-15T11:39:55.403Z,101182.19
2023-05-15T11:40:56.200Z,101180.89
2023-05-15T11:41:59.149Z,101179.88
2023-05-15T11:42:57.679Z,101179.06
2023-05-15T11:43:58.343Z,101178.14
2023-05-15T11:44:59.163Z,101177.42
2023-05-15T11:45:59.911Z,101176.90
2023-05-15T11:47:00.685Z,101175.84
2023-05-15T11:48:01.195Z,101175.05
2023-05-15T11:49:01.276Z,101174.46
2023-05-15T11:50:01.990Z,101173.94
2023-05-15T11:51:02.738Z,101173.56
2023-05-15T11:52:03.675Z,101172.92
2023-05-15T11:53:04.418Z,101172.23
2023-05-15T11:54:06.334Z,101172.17
2023-05-15T11:55:05.565Z,101171.43
2023-05-15T11:56:05.827Z,101170.88
2023-05-15T11:57:06.348Z,101170.08
2023-05-15T11:57:15.972Z,101169.34
2023-05-15T11:58:16.364Z,101164.12
2023-05-15T11:59:17.197Z,101163.83
2023-05-15T12:00:17.791Z,101162.95
2023-05-15T12:01:18.777Z,101161.95
2023-05-15T12:02:18.797Z,101161.41
2023-05-15T12:03:19.644Z,101160.94
2023-05-15T12:04:20.503Z,101161.16
2023-05-15T12:05:20.915Z,101161.91
2023-05-15T12:06:21.982Z,101161.55
2023-05-15T12:07:21.895Z,101160.94
2023-05-15T12:08:22.647Z,101160.70
2023-05-15T12:09:23.596Z,101160.52
2023-05-15T12:10:24.687Z,101159.65
2023-05-15T12:11:25.546Z,101158.38
2023-05-15T12:12:25.886Z,101157.69
2023-05-15T12:13:26.549Z,101156.88
2023-05-15T12:14:27.269Z,101156.14
2023-05-15T12:15:27.983Z,101155.69
2023-05-15T12:16:28.745Z,101155.09
2023-05-15T12:17:29.274Z,101155.09
2023-05-15T12:18:29.472Z,101155.00
2023-05-15T12:19:30.381Z,101153.89
2023-05-15T12:20:31.118Z,101152.97
2023-05-15T12:21:31.731Z,101152.58
2023-05-15T12:22:32.462Z,101152.58
2023-05-15T12:23:32.521Z,101152.39
2023-05-15T12:24:33.096Z,101152.36
2023-05-15T12:25:34.096Z,101152.28
2023-05-15T12:26:34.248Z,101152.11
2023-05-15T12:26:41.848Z,101152.70
2023-05-15T12:27:42.668Z,101150.31
2023-05-15T12:28:43.787Z,101149.47
2023-05-15T12:29:43.583Z,101148.63
2023-05-15T12:30:44.307Z,101148.23
2023-05-15T12:31:45.128Z,101148.73
2023-05-15T12:32:45.780Z,101148.95
2023-05-15T12:33:46.368Z,101149.59
2023-05-15T12:34:47.043Z,101150.47
2023-05-15T12:35:47.913Z,101150.39
2023-05-15T12:36:47.886Z,101150.84
2023-05-15T12:37:48.609Z,101151.48
2023-05-15T12:38:49.282Z,101151.29
2023-05-15T12:39:49.814Z,101151.64
2023-05-15T12:40:50.456Z,101151.16
2023-05-15T12:41:51.235Z,101151.09
2023-05-15T12:42:51.619Z,101150.70
2023-05-15T12:43:51.611Z,101149.73
2023-05-15T12:44:52.121Z,101149.39
2023-05-15T12:45:52.675Z,101149.86
2023-05-15T12:46:52.883Z,101149.85
2023-05-15T12:47:53.531Z,101149.91
2023-05-15T12:48:54.161Z,101150.27
2023-05-15T12:49:54.164Z,101150.54
2023-05-15T12:50:55.057Z,101151.00
2023-05-15T12:51:55.921Z,101151.51
2023-05-15T12:52:56.869Z,101151.52
2023-05-15T12:53:57.621Z,101151.64
2023-05-15T12:54:59.619Z,101151.48
2023-05-15T12:55:59.466Z,101151.55
2023-05-15T12:57:01.967Z,101151.67
2023-05-15T12:58:00.784Z,101151.84
2023-05-15T12:59:00.792Z,101151.72
2023-05-15T12:59:09.468Z,101156.91
2023-05-15T13:00:10.109Z,101159.98
2023-05-15T13:01:11.033Z,101159.55
2023-05-15T13:02:11.531Z,101158.80
2023-05-15T13:03:12.252Z,101158.33
2023-05-15T13:04:12.197Z,101158.19
2023-05-15T13:05:12.710Z,101157.88
2023-05-15T13:06:13.384Z,101157.52
2023-05-15T13:07:13.581Z,101157.17
2023-05-15T13:08:14.304Z,101157.16
2023-05-15T13:09:15.188Z,101156.55
2023-05-15T13:10:15.826Z,101156.16
2023-05-15T13:11:16.436Z,101155.81
2023-05-15T13:12:17.248Z,101155.64
2023-05-15T13:13:17.436Z,101155.25
2023-05-15T13:14:18.344Z,101155.70
2023-05-15T13:15:19.136Z,101155.83
2023-05-15T13:16:20.087Z,101156.55